sensor_id;sensor_type;location;lat;lon;timestamp;P1;durP1;ratioP1;P2;durP2;ratioP2
18399;SDS011;9326;49.468;11.008;2023-02-28T00:02:26;3.40;;;2.60;;
18399;SDS011;9326;49.468;11.008;2023-02-28T00:04:54;5.13;;;2.20;;
18399;SDS011;9326;49.468;11.008;2023-02-28T00:07:26;1.97;;;1.70;;
18399;SDS011;9326;49.468;11.008;2023-02-28T00:09:53;3.30;;;2.20;;
18399;SDS011;9326;49.468;11.008;2023-02-28T00:12:20;3.07;;;1.57;;
18399;SDS011;9326;49.468;11.008;2023-02-28T00:14:47;0.87;;;0.67;;
18399;SDS011;9326;49.468;11.008;2023-02-28T00:17:14;2.83;;;1.60;;
18399;SDS011;9326;49.468;11.008;2023-02-28T00:19:42;3.90;;;3.17;;
18399;SDS011;9326;49.468;11.008;2023-02-28T00:22:11;5.37;;;2.70;;
18399;SDS011;9326;49.468;11.008;2023-02-28T00:24:38;4.43;;;3.03;;
18399;SDS011;9326;49.468;11.008;2023-02-28T00:27:05;3.70;;;2.10;;
18399;SDS011;9326;49.468;11.008;2023-02-28T00:29:32;2.40;;;2.20;;
18399;SDS011;9326;49.468;11.008;2023-02-28T00:31:59;2.93;;;2.10;;
18399;SDS011;9326;49.468;11.008;2023-02-28T00:34:26;3.43;;;1.77;;
18399;SDS011;9326;49.468;11.008;2023-02-28T00:36:53;4.17;;;2.80;;
18399;SDS011;9326;49.468;11.008;2023-02-28T00:39:22;2.97;;;2.20;;
18399;SDS011;9326;49.468;11.008;2023-02-28T00:41:49;2.37;;;2.10;;
18399;SDS011;9326;49.468;11.008;2023-02-28T00:44:16;2.93;;;1.60;;
18399;SDS011;9326;49.468;11.008;2023-02-28T00:46:46;1.70;;;1.17;;
18399;SDS011;9326;49.468;11.008;2023-02-28T00:49:13;3.60;;;2.77;;
18399;SDS011;9326;49.468;11.008;2023-02-28T00:51:40;4.93;;;2.87;;
18399;SDS011;9326;49.468;11.008;2023-02-28T00:54:07;4.43;;;2.87;;
18399;SDS011;9326;49.468;11.008;2023-02-28T00:56:36;3.33;;;1.80;;
18399;SDS011;9326;49.468;11.008;2023-02-28T00:59:03;4.10;;;2.20;;
18399;SDS011;9326;49.468;11.008;2023-02-28T06:02:37;6.50;;;4.50;;
18399;SDS011;9326;49.468;11.008;2023-02-28T06:05:05;5.37;;;4.67;;
18399;SDS011;9326;49.468;11.008;2023-02-28T06:07:32;6.43;;;5.10;;
18399;SDS011;9326;49.468;11.008;2023-02-28T06:09:59;9.37;;;5.70;;
18399;SDS011;9326;49.468;11.008;2023-02-28T06:12:26;4.10;;;2.53;;
18399;SDS011;9326;49.468;11.008;2023-02-28T06:14:53;8.43;;;3.93;;
18399;SDS011;9326;49.468;11.008;2023-02-28T06:17:20;6.43;;;3.93;;
18399;SDS011;9326;49.468;11.008;2023-02-28T06:19:49;4.97;;;3.80;;
18399;SDS011;9326;49.468;11.008;2023-02-28T06:22:16;7.20;;;4.33;;
18399;SDS011;9326;49.468;11.008;2023-02-28T06:24:43;7.67;;;4.03;;
18399;SDS011;9326;49.468;11.008;2023-02-28T06:27:10;7.63;;;4.27;;
18399;SDS011;9326;49.468;11.008;2023-02-28T06:29:37;7.40;;;4.03;;
18399;SDS011;9326;49.468;11.008;2023-02-28T06:32:04;4.60;;;3.30;;
18399;SDS011;9326;49.468;11.008;2023-02-28T06:34:32;7.07;;;4.63;;
18399;SDS011;9326;49.468;11.008;2023-02-28T06:37:01;6.50;;;3.83;;
18399;SDS011;9326;49.468;11.008;2023-02-28T06:39:28;6.43;;;4.20;;
18399;SDS011;9326;49.468;11.008;2023-02-28T06:41:55;5.53;;;3.43;;
18399;SDS011;9326;49.468;11.008;2023-02-28T06:44:22;5.07;;;3.17;;
18399;SDS011;9326;49.468;11.008;2023-02-28T06:46:49;5.47;;;3.30;;
18399;SDS011;9326;49.468;11.008;2023-02-28T06:49:17;7.03;;;5.00;;
18399;SDS011;9326;49.468;11.008;2023-02-28T06:51:44;6.50;;;3.40;;
18399;SDS011;9326;49.468;11.008;2023-02-28T06:54:13;7.03;;;4.47;;
18399;SDS011;9326;49.468;11.008;2023-02-28T06:56:40;8.03;;;4.40;;
18399;SDS011;9326;49.468;11.008;2023-02-28T06:59:07;3.50;;;2.07;;
18399;SDS011;9326;49.468;11.008;2023-02-28T07:01:34;5.50;;;4.13;;
18399;SDS011;9326;49.468;11.008;2023-02-28T07:04:01;6.40;;;4.33;;
18399;SDS011;9326;49.468;11.008;2023-02-28T07:06:29;2.10;;;1.77;;
18399;SDS011;9326;49.468;11.008;2023-02-28T07:08:56;5.63;;;3.80;;
18399;SDS011;9326;49.468;11.008;2023-02-28T07:11:25;7.13;;;5.00;;
18399;SDS011;9326;49.468;11.008;2023-02-28T07:13:52;3.43;;;2.37;;
18399;SDS011;9326;49.468;11.008;2023-02-28T07:16:19;5.13;;;3.37;;
18399;SDS011;9326;49.468;11.008;2023-02-28T07:18:46;5.47;;;3.30;;
18399;SDS011;9326;49.468;11.008;2023-02-28T07:21:13;6.67;;;4.23;;
18399;SDS011;9326;49.468;11.008;2023-02-28T07:23:40;10.90;;;4.87;;
18399;SDS011;9326;49.468;11.008;2023-02-28T07:26:08;2.83;;;2.03;;
18399;SDS011;9326;49.468;11.008;2023-02-28T07:28:39;3.97;;;2.43;;
18399;SDS011;9326;49.468;11.008;2023-02-28T07:31:07;7.67;;;4.40;;
18399;SDS011;9326;49.468;11.008;2023-02-28T07:33:34;7.20;;;5.17;;
18399;SDS011;9326;49.468;11.008;2023-02-28T07:36:02;5.47;;;3.33;;
18399;SDS011;9326;49.468;11.008;2023-02-28T07:38:29;6.83;;;4.17;;
18399;SDS011;9326;49.468;11.008;2023-02-28T07:40:56;4.83;;;3.90;;
18399;SDS011;9326;49.468;11.008;2023-02-28T07:43:23;7.63;;;5.87;;
18399;SDS011;9326;49.468;11.008;2023-02-28T07:45:52;6.67;;;5.07;;
18399;SDS011;9326;49.468;11.008;2023-02-28T07:48:19;10.60;;;6.03;;
18399;SDS011;9326;49.468;11.008;2023-02-28T07:50:53;5.70;;;4.30;;
18399;SDS011;9326;49.468;11.008;2023-02-28T07:53:21;7.00;;;4.40;;
18399;SDS011;9326;49.468;11.008;2023-02-28T07:55:48;8.50;;;4.97;;
18399;SDS011;9326;49.468;11.008;2023-02-28T07:58:15;10.77;;;5.53;;
18399;SDS011;9326;49.468;11.008;2023-02-28T08:00:42;7.37;;;6.00;;
18399;SDS011;9326;49.468;11.008;2023-02-28T08:03:12;8.73;;;6.30;;
18399;SDS011;9326;49.468;11.008;2023-02-28T08:05:39;8.63;;;6.07;;
18399;SDS011;9326;49.468;11.008;2023-02-28T08:08:07;7.87;;;5.97;;
18399;SDS011;9326;49.468;11.008;2023-02-28T08:10:34;7.43;;;5.50;;
18399;SDS011;9326;49.468;11.008;2023-02-28T08:13:01;6.27;;;4.73;;
18399;SDS011;9326;49.468;11.008;2023-02-28T08:15:28;8.13;;;5.43;;
18399;SDS011;9326;49.468;11.008;2023-02-28T08:17:55;8.97;;;5.50;;
18399;SDS011;9326;49.468;11.008;2023-02-28T08:20:24;5.93;;;4.17;;
18399;SDS011;9326;49.468;11.008;2023-02-28T08:22:51;7.20;;;4.90;;
18399;SDS011;9326;49.468;11.008;2023-02-28T08:25:19;6.77;;;4.80;;
18399;SDS011;9326;49.468;11.008;2023-02-28T08:27:46;7.77;;;5.63;;
18399;SDS011;9326;49.468;11.008;2023-02-28T08:30:13;10.63;;;6.80;;
18399;SDS011;9326;49.468;11.008;2023-02-28T08:32:40;8.20;;;6.50;;
18399;SDS011;9326;49.468;11.008;2023-02-28T08:35:08;7.37;;;5.50;;
18399;SDS011;9326;49.468;11.008;2023-02-28T08:37:37;5.60;;;3.97;;
18399;SDS011;9326;49.468;11.008;2023-02-28T08:40:04;5.27;;;3.33;;
18399;SDS011;9326;49.468;11.008;2023-02-28T08:42:31;6.57;;;4.60;;
18399;SDS011;9326;49.468;11.008;2023-02-28T08:44:58;6.97;;;5.70;;
18399;SDS011;9326;49.468;11.008;2023-02-28T08:47:25;5.13;;;3.90;;
18399;SDS011;9326;49.468;11.008;2023-02-28T08:49:53;9.13;;;4.40;;
18399;SDS011;9326;49.468;11.008;2023-02-28T08:52:20;6.70;;;3.80;;
18399;SDS011;9326;49.468;11.008;2023-02-28T08:54:48;6.57;;;4.10;;
18399;SDS011;9326;49.468;11.008;2023-02-28T08:57:15;6.13;;;4.33;;
18399;SDS011;9326;49.468;11.008;2023-02-28T08:59:42;7.03;;;4.03;;
18399;SDS011;9326;49.468;11.008;2023-02-28T09:02:10;8.50;;;5.37;;
18399;SDS011;9326;49.468;11.008;2023-02-28T09:04:39;9.83;;;6.73;;
18399;SDS011;9326;49.468;11.008;2023-02-28T09:07:06;7.37;;;5.30;;
18399;SDS011;9326;49.468;11.008;2023-02-28T09:09:33;9.23;;;6.50;;
18399;SDS011;9326;49.468;11.008;2023-02-28T09:12:01;6.43;;;4.57;;
18399;SDS011;9326;49.468;11.008;2023-02-28T09:14:30;7.93;;;6.40;;
18399;SDS011;9326;49.468;11.008;2023-02-28T09:16:57;7.53;;;5.07;;
18399;SDS011;9326;49.468;11.008;2023-02-28T09:19:24;9.47;;;6.73;;
18399;SDS011;9326;49.468;11.008;2023-02-28T09:21:52;8.40;;;5.37;;
18399;SDS011;9326;49.468;11.008;2023-02-28T09:24:19;8.53;;;5.90;;
18399;SDS011;9326;49.468;11.008;2023-02-28T09:26:46;9.67;;;6.17;;
18399;SDS011;9326;49.468;11.008;2023-02-28T09:29:14;6.77;;;4.37;;
18399;SDS011;9326;49.468;11.008;2023-02-28T09:31:42;7.87;;;6.50;;
18399;SDS011;9326;49.468;11.008;2023-02-28T09:34:09;8.23;;;6.33;;
18399;SDS011;9326;49.468;11.008;2023-02-28T09:36:36;10.30;;;6.50;;
18399;SDS011;9326;49.468;11.008;2023-02-28T09:39:03;9.83;;;6.10;;
18399;SDS011;9326;49.468;11.008;2023-02-28T09:41:32;9.03;;;5.40;;
18399;SDS011;9326;49.468;11.008;2023-02-28T09:44:04;3.87;;;3.43;;
18399;SDS011;9326;49.468;11.008;2023-02-28T09:49:17;7.23;;;5.03;;
18399;SDS011;9326;49.468;11.008;2023-02-28T09:51:46;7.97;;;5.47;;
18399;SDS011;9326;49.468;11.008;2023-02-28T09:54:16;8.87;;;5.37;;
18399;SDS011;9326;49.468;11.008;2023-02-28T09:56:44;11.77;;;6.60;;
18399;SDS011;9326;49.468;11.008;2023-02-28T09:59:15;7.47;;;6.17;;
18399;SDS011;9326;49.468;11.008;2023-02-28T10:01:45;10.30;;;6.27;;
18399;SDS011;9326;49.468;11.008;2023-02-28T10:04:26;9.33;;;6.20;;
18399;SDS011;9326;49.468;11.008;2023-02-28T10:06:59;7.87;;;5.77;;
18399;SDS011;9326;49.468;11.008;2023-02-28T10:09:30;5.63;;;4.23;;
18399;SDS011;9326;49.468;11.008;2023-02-28T10:12:00;8.70;;;5.77;;
18399;SDS011;9326;49.468;11.008;2023-02-28T10:14:28;7.00;;;4.53;;
18399;SDS011;9326;49.468;11.008;2023-02-28T10:16:56;7.70;;;4.97;;
18399;SDS011;9326;49.468;11.008;2023-02-28T10:19:28;7.33;;;6.10;;
18399;SDS011;9326;49.468;11.008;2023-02-28T10:21:59;5.60;;;4.27;;
18399;SDS011;9326;49.468;11.008;2023-02-28T10:24:28;7.13;;;5.50;;
18399;SDS011;9326;49.468;11.008;2023-02-28T10:26:56;8.07;;;5.83;;
18399;SDS011;9326;49.468;11.008;2023-02-28T10:29:26;11.17;;;6.70;;
18399;SDS011;9326;49.468;11.008;2023-02-28T10:31:53;8.57;;;6.37;;
18399;SDS011;9326;49.468;11.008;2023-02-28T10:34:20;5.93;;;4.10;;
18399;SDS011;9326;49.468;11.008;2023-02-28T10:36:48;5.37;;;3.43;;
18399;SDS011;9326;49.468;11.008;2023-02-28T10:42:21;8.83;;;5.47;;
18399;SDS011;9326;49.468;11.008;2023-02-28T10:44:55;5.10;;;4.50;;
18399;SDS011;9326;49.468;11.008;2023-02-28T10:47:31;6.37;;;4.90;;
18399;SDS011;9326;49.468;11.008;2023-02-28T10:50:00;8.87;;;5.70;;
18399;SDS011;9326;49.468;11.008;2023-02-28T10:52:36;7.80;;;5.10;;
18399;SDS011;9326;49.468;11.008;2023-02-28T10:55:13;7.47;;;5.43;;
18399;SDS011;9326;49.468;11.008;2023-02-28T10:57:41;5.87;;;5.07;;
18399;SDS011;9326;49.468;11.008;2023-02-28T11:00:12;6.27;;;4.90;;
18399;SDS011;9326;49.468;11.008;2023-02-28T11:02:40;6.13;;;4.53;;
18399;SDS011;9326;49.468;11.008;2023-02-28T11:05:23;8.53;;;5.57;;
18399;SDS011;9326;49.468;11.008;2023-02-28T11:07:52;7.33;;;5.40;;
18399;SDS011;9326;49.468;11.008;2023-02-28T11:10:20;7.80;;;5.70;;
18399;SDS011;9326;49.468;11.008;2023-02-28T11:12:49;8.37;;;5.33;;
18399;SDS011;9326;49.468;11.008;2023-02-28T11:15:21;4.93;;;4.43;;
18399;SDS011;9326;49.468;11.008;2023-02-28T11:17:52;5.80;;;4.53;;
18399;SDS011;9326;49.468;11.008;2023-02-28T11:20:20;6.37;;;5.50;;
18399;SDS011;9326;49.468;11.008;2023-02-28T11:22:49;7.57;;;5.23;;
18399;SDS011;9326;49.468;11.008;2023-02-28T11:25:20;6.53;;;4.93;;
18399;SDS011;9326;49.468;11.008;2023-02-28T11:27:48;6.23;;;5.30;;
18399;SDS011;9326;49.468;11.008;2023-02-28T11:30:27;5.97;;;5.13;;
18399;SDS011;9326;49.468;11.008;2023-02-28T11:32:54;3.67;;;3.33;;
18399;SDS011;9326;49.468;11.008;2023-02-28T11:35:23;5.50;;;3.87;;
18399;SDS011;9326;49.468;11.008;2023-02-28T11:37:51;7.17;;;5.07;;
18399;SDS011;9326;49.468;11.008;2023-02-28T11:40:21;7.77;;;5.53;;
18399;SDS011;9326;49.468;11.008;2023-02-28T11:42:54;8.93;;;6.17;;
18399;SDS011;9326;49.468;11.008;2023-02-28T11:45:37;7.57;;;5.93;;
18399;SDS011;9326;49.468;11.008;2023-02-28T11:48:09;9.10;;;5.73;;
18399;SDS011;9326;49.468;11.008;2023-02-28T11:50:40;7.53;;;6.70;;
18399;SDS011;9326;49.468;11.008;2023-02-28T11:53:10;8.30;;;6.50;;
18399;SDS011;9326;49.468;11.008;2023-02-28T11:55:43;7.33;;;5.67;;
18399;SDS011;9326;49.468;11.008;2023-02-28T11:58:14;7.53;;;5.87;;
18399;SDS011;9326;49.468;11.008;2023-02-28T12:00:52;6.67;;;5.67;;
18399;SDS011;9326;49.468;11.008;2023-02-28T12:03:25;8.70;;;5.90;;
18399;SDS011;9326;49.468;11.008;2023-02-28T12:05:54;9.27;;;6.17;;
18399;SDS011;9326;49.468;11.008;2023-02-28T12:08:26;8.97;;;5.70;;
18399;SDS011;9326;49.468;11.008;2023-02-28T12:11:03;7.03;;;4.90;;
18399;SDS011;9326;49.468;11.008;2023-02-28T12:13:35;8.30;;;5.17;;
18399;SDS011;9326;49.468;11.008;2023-02-28T12:16:16;9.10;;;6.20;;
18399;SDS011;9326;49.468;11.008;2023-02-28T12:18:51;6.23;;;5.63;;
18399;SDS011;9326;49.468;11.008;2023-02-28T12:21:22;5.10;;;4.03;;
18399;SDS011;9326;49.468;11.008;2023-02-28T12:24:03;8.17;;;6.00;;
18399;SDS011;9326;49.468;11.008;2023-02-28T12:26:38;6.97;;;4.83;;
18399;SDS011;9326;49.468;11.008;2023-02-28T12:29:09;8.23;;;5.83;;
18399;SDS011;9326;49.468;11.008;2023-02-28T12:31:38;7.17;;;5.87;;
18399;SDS011;9326;49.468;11.008;2023-02-28T12:34:09;8.93;;;5.43;;
18399;SDS011;9326;49.468;11.008;2023-02-28T12:36:37;5.97;;;4.87;;
18399;SDS011;9326;49.468;11.008;2023-02-28T12:39:07;7.20;;;6.20;;
18399;SDS011;9326;49.468;11.008;2023-02-28T12:41:39;8.33;;;5.47;;
18399;SDS011;9326;49.468;11.008;2023-02-28T12:44:07;6.57;;;4.77;;
18399;SDS011;9326;49.468;11.008;2023-02-28T12:46:37;9.20;;;6.20;;
18399;SDS011;9326;49.468;11.008;2023-02-28T12:49:06;10.07;;;5.57;;
18399;SDS011;9326;49.468;11.008;2023-02-28T12:51:34;11.50;;;7.17;;
18399;SDS011;9326;49.468;11.008;2023-02-28T12:54:04;9.30;;;6.23;;
18399;SDS011;9326;49.468;11.008;2023-02-28T12:56:36;8.50;;;6.00;;
18399;SDS011;9326;49.468;11.008;2023-02-28T12:59:10;7.10;;;5.30;;
18399;SDS011;9326;49.468;11.008;2023-02-28T13:01:42;7.07;;;5.10;;
18399;SDS011;9326;49.468;11.008;2023-02-28T13:09:51;7.90;;;5.47;;
18399;SDS011;9326;49.468;11.008;2023-02-28T13:12:19;9.40;;;6.10;;
18399;SDS011;9326;49.468;11.008;2023-02-28T13:14:49;8.37;;;6.27;;
18399;SDS011;9326;49.468;11.008;2023-02-28T13:17:17;7.30;;;6.10;;
18399;SDS011;9326;49.468;11.008;2023-02-28T13:19:46;8.70;;;5.70;;
18399;SDS011;9326;49.468;11.008;2023-02-28T13:22:35;6.70;;;6.00;;
18399;SDS011;9326;49.468;11.008;2023-02-28T13:25:04;7.10;;;5.50;;
18399;SDS011;9326;49.468;11.008;2023-02-28T13:27:51;8.03;;;5.47;;
18399;SDS011;9326;49.468;11.008;2023-02-28T13:33:24;7.17;;;5.97;;
18399;SDS011;9326;49.468;11.008;2023-02-28T13:36:06;8.20;;;6.13;;
18399;SDS011;9326;49.468;11.008;2023-02-28T13:38:35;7.80;;;5.80;;
18399;SDS011;9326;49.468;11.008;2023-02-28T13:46:36;9.60;;;6.70;;
18399;SDS011;9326;49.468;11.008;2023-02-28T22:41:44;22.40;;;15.40;;
18399;SDS011;9326;49.468;11.008;2023-02-28T22:44:11;21.53;;;14.87;;
18399;SDS011;9326;49.468;11.008;2023-02-28T22:46:38;22.17;;;15.07;;
18399;SDS011;9326;49.468;11.008;2023-02-28T22:49:05;19.93;;;14.73;;
18399;SDS011;9326;49.468;11.008;2023-02-28T22:51:32;21.37;;;14.93;;
18399;SDS011;9326;49.468;11.008;2023-02-28T22:53:59;25.60;;;14.60;;
18399;SDS011;9326;49.468;11.008;2023-02-28T22:56:28;21.43;;;16.00;;
18399;SDS011;9326;49.468;11.008;2023-02-28T22:58:57;22.20;;;15.47;;
18399;SDS011;9326;49.468;11.008;2023-02-28T23:01:25;19.80;;;14.97;;
18399;SDS011;9326;49.468;11.008;2023-02-28T23:03:53;21.73;;;15.27;;
18399;SDS011;9326;49.468;11.008;2023-02-28T23:06:21;19.17;;;13.03;;
18399;SDS011;9326;49.468;11.008;2023-02-28T23:08:48;17.87;;;11.77;;
18399;SDS011;9326;49.468;11.008;2023-02-28T23:11:16;17.83;;;10.93;;
18399;SDS011;9326;49.468;11.008;2023-02-28T23:13:43;17.63;;;11.03;;
18399;SDS011;9326;49.468;11.008;2023-02-28T23:16:23;17.63;;;10.97;;
18399;SDS011;9326;49.468;11.008;2023-02-28T23:18:50;18.07;;;11.67;;
18399;SDS011;9326;49.468;11.008;2023-02-28T23:21:18;18.63;;;11.67;;
18399;SDS011;9326;49.468;11.008;2023-02-28T23:23:45;17.63;;;11.13;;
18399;SDS011;9326;49.468;11.008;2023-02-28T23:26:12;17.80;;;12.43;;
18399;SDS011;9326;49.468;11.008;2023-02-28T23:28:39;17.70;;;11.37;;
18399;SDS011;9326;49.468;11.008;2023-02-28T23:31:06;16.10;;;11.00;;
18399;SDS011;9326;49.468;11.008;2023-02-28T23:33:34;18.27;;;11.07;;
18399;SDS011;9326;49.468;11.008;2023-02-28T23:36:08;16.07;;;10.67;;
18399;SDS011;9326;49.468;11.008;2023-02-28T23:38:36;18.90;;;13.20;;
18399;SDS011;9326;49.468;11.008;2023-02-28T23:41:07;15.87;;;10.30;;
18399;SDS011;9326;49.468;11.008;2023-02-28T23:43:34;21.57;;;13.47;;
18399;SDS011;9326;49.468;11.008;2023-02-28T23:46:02;17.67;;;11.17;;
18399;SDS011;9326;49.468;11.008;2023-02-28T23:48:29;19.40;;;11.97;;
18399;SDS011;9326;49.468;11.008;2023-02-28T23:51:00;17.60;;;11.03;;
18399;SDS011;9326;49.468;11.008;2023-02-28T23:53:32;22.20;;;13.77;;
18399;SDS011;9326;49.468;11.008;2023-02-28T23:55:59;16.53;;;11.80;;
18399;SDS011;9326;49.468;11.008;2023-02-28T23:58:27;19.07;;;12.57;;
